sensor_id;sensor_type;location;lat;lon;timestamp;P1;durP1;ratioP1;P2;durP2;ratioP2
11807;SDS011;5961;42.640;23.380;2023-05-10T00:01:48;5.83;;;4.87;;
11807;SDS011;5961;42.640;23.380;2023-05-10T00:04:15;5.70;;;4.97;;
11807;SDS011;5961;42.640;23.380;2023-05-10T00:06:41;4.77;;;4.37;;
11807;SDS011;5961;42.640;23.380;2023-05-10T00:09:08;5.60;;;4.93;;
11807;SDS011;5961;42.640;23.380;2023-05-10T00:11:35;4.80;;;4.30;;
11807;SDS011;5961;42.640;23.380;2023-05-10T00:14:01;4.83;;;4.43;;
11807;SDS011;5961;42.640;23.380;2023-05-10T00:16:30;4.70;;;4.20;;
11807;SDS011;5961;42.640;23.380;2023-05-10T00:18:56;4.97;;;4.50;;
11807;SDS011;5961;42.640;23.380;2023-05-10T00:21:23;4.93;;;4.30;;
11807;SDS011;5961;42.640;23.380;2023-05-10T00:23:50;5.40;;;4.90;;
11807;SDS011;5961;42.640;23.380;2023-05-10T00:26:16;4.90;;;4.50;;
11807;SDS011;5961;42.640;23.380;2023-05-10T00:28:43;5.27;;;4.80;;
11807;SDS011;5961;42.640;23.380;2023-05-10T00:31:10;5.63;;;4.73;;
11807;SDS011;5961;42.640;23.380;2023-05-10T00:33:38;5.90;;;5.40;;
11807;SDS011;5961;42.640;23.380;2023-05-10T00:36:05;5.27;;;4.73;;
11807;SDS011;5961;42.640;23.380;2023-05-10T00:38:33;5.80;;;5.27;;
11807;SDS011;5961;42.640;23.380;2023-05-10T00:41:00;5.90;;;5.30;;
11807;SDS011;5961;42.640;23.380;2023-05-10T00:43:26;6.87;;;6.17;;
11807;SDS011;5961;42.640;23.380;2023-05-10T00:45:53;6.10;;;5.50;;
11807;SDS011;5961;42.640;23.380;2023-05-10T00:48:20;6.70;;;6.07;;
11807;SDS011;5961;42.640;23.380;2023-05-10T00:50:49;8.67;;;6.13;;
11807;SDS011;5961;42.640;23.380;2023-05-10T00:53:16;7.53;;;6.37;;
11807;SDS011;5961;42.640;23.380;2023-05-10T00:55:43;6.60;;;5.90;;
11807;SDS011;5961;42.640;23.380;2023-05-10T00:58:09;7.07;;;6.37;;
11807;SDS011;5961;42.640;23.380;2023-05-10T01:00:36;9.23;;;6.43;;
11807;SDS011;5961;42.640;23.380;2023-05-10T01:03:08;6.73;;;6.13;;
11807;SDS011;5961;42.640;23.380;2023-05-10T01:05:36;6.73;;;6.13;;
11807;SDS011;5961;42.640;23.380;2023-05-10T01:08:04;7.00;;;6.37;;
11807;SDS011;5961;42.640;23.380;2023-05-10T01:10:31;7.47;;;6.63;;
11807;SDS011;5961;42.640;23.380;2023-05-10T01:12:58;6.63;;;5.93;;
11807;SDS011;5961;42.640;23.380;2023-05-10T01:15:25;7.30;;;6.57;;
11807;SDS011;5961;42.640;23.380;2023-05-10T01:17:53;6.10;;;5.60;;
11807;SDS011;5961;42.640;23.380;2023-05-10T01:20:20;5.97;;;5.40;;
11807;SDS011;5961;42.640;23.380;2023-05-10T01:22:53;5.83;;;5.33;;
11807;SDS011;5961;42.640;23.380;2023-05-10T01:25:58;5.57;;;5.07;;
11807;SDS011;5961;42.640;23.380;2023-05-10T01:31:58;6.40;;;4.83;;
11807;SDS011;5961;42.640;23.380;2023-05-10T01:34:46;5.27;;;4.77;;
11807;SDS011;5961;42.640;23.380;2023-05-10T01:37:18;5.23;;;4.73;;
11807;SDS011;5961;42.640;23.380;2023-05-10T01:39:51;5.00;;;4.60;;
11807;SDS011;5961;42.640;23.380;2023-05-10T01:42:21;5.03;;;4.50;;
11807;SDS011;5961;42.640;23.380;2023-05-10T01:44:53;4.73;;;4.33;;
11807;SDS011;5961;42.640;23.380;2023-05-10T01:47:27;5.23;;;3.87;;
11807;SDS011;5961;42.640;23.380;2023-05-10T01:50:01;4.67;;;4.20;;
11807;SDS011;5961;42.640;23.380;2023-05-10T01:52:30;5.00;;;4.23;;
11807;SDS011;5961;42.640;23.380;2023-05-10T01:55:00;4.40;;;4.00;;
11807;SDS011;5961;42.640;23.380;2023-05-10T01:57:31;4.90;;;3.70;;
11807;SDS011;5961;42.640;23.380;2023-05-10T02:00:00;4.33;;;3.70;;
11807;SDS011;5961;42.640;23.380;2023-05-10T02:02:30;4.40;;;4.00;;
11807;SDS011;5961;42.640;23.380;2023-05-10T02:05:02;6.77;;;4.10;;
11807;SDS011;5961;42.640;23.380;2023-05-10T02:07:30;5.23;;;3.93;;
11807;SDS011;5961;42.640;23.380;2023-05-10T02:09:58;5.03;;;3.93;;
11807;SDS011;5961;42.640;23.380;2023-05-10T02:12:25;5.00;;;3.77;;
11807;SDS011;5961;42.640;23.380;2023-05-10T02:14:54;6.03;;;3.87;;
11807;SDS011;5961;42.640;23.380;2023-05-10T02:17:22;4.53;;;3.90;;
11807;SDS011;5961;42.640;23.380;2023-05-10T02:19:52;4.10;;;3.70;;
11807;SDS011;5961;42.640;23.380;2023-05-10T02:22:20;5.30;;;3.80;;
11807;SDS011;5961;42.640;23.380;2023-05-10T02:24:48;7.20;;;4.40;;
11807;SDS011;5961;42.640;23.380;2023-05-10T02:27:16;5.00;;;4.00;;
11807;SDS011;5961;42.640;23.380;2023-05-10T02:29:45;7.03;;;4.00;;
11807;SDS011;5961;42.640;23.380;2023-05-10T02:32:13;9.00;;;3.80;;
11807;SDS011;5961;42.640;23.380;2023-05-10T02:34:40;4.20;;;3.37;;
11807;SDS011;5961;42.640;23.380;2023-05-10T02:37:11;6.50;;;4.10;;
11807;SDS011;5961;42.640;23.380;2023-05-10T02:39:39;4.53;;;3.73;;
11807;SDS011;5961;42.640;23.380;2023-05-10T02:42:09;4.00;;;3.60;;
11807;SDS011;5961;42.640;23.380;2023-05-10T02:44:40;5.63;;;4.50;;
11807;SDS011;5961;42.640;23.380;2023-05-10T02:47:07;5.03;;;4.20;;
11807;SDS011;5961;42.640;23.380;2023-05-10T02:49:34;7.20;;;4.30;;
11807;SDS011;5961;42.640;23.380;2023-05-10T02:52:01;4.33;;;3.80;;
11807;SDS011;5961;42.640;23.380;2023-05-10T02:54:33;6.03;;;4.20;;
11807;SDS011;5961;42.640;23.380;2023-05-10T02:57:05;9.60;;;4.50;;
11807;SDS011;5961;42.640;23.380;2023-05-10T02:59:33;4.83;;;4.33;;
11807;SDS011;5961;42.640;23.380;2023-05-10T03:02:00;5.70;;;4.13;;
11807;SDS011;5961;42.640;23.380;2023-05-10T03:04:27;4.73;;;4.23;;
11807;SDS011;5961;42.640;23.380;2023-05-10T03:06:54;5.70;;;3.93;;
11807;SDS011;5961;42.640;23.380;2023-05-10T03:09:21;5.97;;;4.30;;
11807;SDS011;5961;42.640;23.380;2023-05-10T03:11:53;5.40;;;4.37;;
11807;SDS011;5961;42.640;23.380;2023-05-10T03:14:31;6.20;;;4.50;;
11807;SDS011;5961;42.640;23.380;2023-05-10T03:17:14;14.17;;;4.40;;
11807;SDS011;5961;42.640;23.380;2023-05-10T03:19:46;4.80;;;4.30;;
11807;SDS011;5961;42.640;23.380;2023-05-10T03:22:18;4.93;;;4.43;;
11807;SDS011;5961;42.640;23.380;2023-05-10T03:24:49;4.57;;;4.00;;
11807;SDS011;5961;42.640;23.380;2023-05-10T03:27:21;4.60;;;4.20;;
11807;SDS011;5961;42.640;23.380;2023-05-10T03:29:48;4.07;;;3.53;;
11807;SDS011;5961;42.640;23.380;2023-05-10T03:32:17;4.83;;;4.40;;
11807;SDS011;5961;42.640;23.380;2023-05-10T03:34:44;4.53;;;4.13;;
11807;SDS011;5961;42.640;23.380;2023-05-10T03:37:10;5.80;;;4.10;;
11807;SDS011;5961;42.640;23.380;2023-05-10T03:39:37;4.83;;;4.03;;
11807;SDS011;5961;42.640;23.380;2023-05-10T03:42:04;5.70;;;3.80;;
11807;SDS011;5961;42.640;23.380;2023-05-10T03:44:32;6.00;;;3.80;;
11807;SDS011;5961;42.640;23.380;2023-05-10T03:46:59;4.00;;;3.57;;
11807;SDS011;5961;42.640;23.380;2023-05-10T03:49:26;5.70;;;4.13;;
11807;SDS011;5961;42.640;23.380;2023-05-10T03:51:52;4.90;;;4.40;;
11807;SDS011;5961;42.640;23.380;2023-05-10T03:54:19;5.40;;;4.20;;
11807;SDS011;5961;42.640;23.380;2023-05-10T03:56:46;4.70;;;3.93;;
11807;SDS011;5961;42.640;23.380;2023-05-10T03:59:13;5.30;;;3.93;;
11807;SDS011;5961;42.640;23.380;2023-05-10T04:01:41;5.13;;;3.60;;
11807;SDS011;5961;42.640;23.380;2023-05-10T04:04:08;5.30;;;3.97;;
11807;SDS011;5961;42.640;23.380;2023-05-10T04:06:34;4.80;;;3.93;;
11807;SDS011;5961;42.640;23.380;2023-05-10T04:09:01;6.87;;;4.07;;
11807;SDS011;5961;42.640;23.380;2023-05-10T04:11:29;4.27;;;3.87;;
11807;SDS011;5961;42.640;23.380;2023-05-10T04:13:56;7.23;;;4.63;;
11807;SDS011;5961;42.640;23.380;2023-05-10T04:16:23;6.17;;;4.07;;
11807;SDS011;5961;42.640;23.380;2023-05-10T04:18:51;5.83;;;4.30;;
11807;SDS011;5961;42.640;23.380;2023-05-10T04:21:17;4.80;;;4.27;;
11807;SDS011;5961;42.640;23.380;2023-05-10T04:23:44;4.80;;;4.37;;
11807;SDS011;5961;42.640;23.380;2023-05-10T04:26:11;6.20;;;4.67;;
11807;SDS011;5961;42.640;23.380;2023-05-10T04:28:38;5.23;;;4.33;;
11807;SDS011;5961;42.640;23.380;2023-05-10T04:31:06;5.83;;;4.63;;
11807;SDS011;5961;42.640;23.380;2023-05-10T04:33:33;7.93;;;4.63;;
11807;SDS011;5961;42.640;23.380;2023-05-10T04:36:01;6.10;;;4.70;;
11807;SDS011;5961;42.640;23.380;2023-05-10T04:38:29;7.17;;;4.40;;
11807;SDS011;5961;42.640;23.380;2023-05-10T04:41:03;5.23;;;4.40;;
11807;SDS011;5961;42.640;23.380;2023-05-10T04:43:30;6.87;;;4.50;;
11807;SDS011;5961;42.640;23.380;2023-05-10T04:45:57;7.67;;;4.97;;
11807;SDS011;5961;42.640;23.380;2023-05-10T04:48:24;6.17;;;4.83;;
11807;SDS011;5961;42.640;23.380;2023-05-10T04:50:50;4.90;;;4.20;;
11807;SDS011;5961;42.640;23.380;2023-05-10T04:53:18;6.23;;;4.80;;
11807;SDS011;5961;42.640;23.380;2023-05-10T04:55:45;5.50;;;4.60;;
11807;SDS011;5961;42.640;23.380;2023-05-10T04:58:13;9.10;;;4.60;;
11807;SDS011;5961;42.640;23.380;2023-05-10T05:00:39;5.87;;;5.07;;
11807;SDS011;5961;42.640;23.380;2023-05-10T05:03:06;6.97;;;5.17;;
11807;SDS011;5961;42.640;23.380;2023-05-10T05:05:33;6.53;;;4.83;;
11807;SDS011;5961;42.640;23.380;2023-05-10T05:08:00;8.87;;;5.33;;
11807;SDS011;5961;42.640;23.380;2023-05-10T05:10:28;5.13;;;4.40;;
11807;SDS011;5961;42.640;23.380;2023-05-10T05:12:55;6.57;;;4.73;;
11807;SDS011;5961;42.640;23.380;2023-05-10T05:15:21;6.50;;;5.17;;
11807;SDS011;5961;42.640;23.380;2023-05-10T05:17:48;6.20;;;5.60;;
11807;SDS011;5961;42.640;23.380;2023-05-10T05:20:15;7.90;;;5.50;;
11807;SDS011;5961;42.640;23.380;2023-05-10T05:22:42;5.20;;;4.70;;
11807;SDS011;5961;42.640;23.380;2023-05-10T05:25:08;6.30;;;5.43;;
11807;SDS011;5961;42.640;23.380;2023-05-10T05:27:38;8.57;;;5.33;;
11807;SDS011;5961;42.640;23.380;2023-05-10T05:30:05;7.30;;;6.07;;
11807;SDS011;5961;42.640;23.380;2023-05-10T05:32:33;8.20;;;5.63;;
11807;SDS011;5961;42.640;23.380;2023-05-10T05:34:59;7.70;;;5.53;;
11807;SDS011;5961;42.640;23.380;2023-05-10T05:37:26;7.07;;;6.07;;
11807;SDS011;5961;42.640;23.380;2023-05-10T05:39:53;7.30;;;6.20;;
11807;SDS011;5961;42.640;23.380;2023-05-10T05:42:20;7.93;;;5.70;;
11807;SDS011;5961;42.640;23.380;2023-05-10T05:44:48;9.20;;;6.43;;
11807;SDS011;5961;42.640;23.380;2023-05-10T05:47:14;6.90;;;6.20;;
11807;SDS011;5961;42.640;23.380;2023-05-10T05:49:41;9.23;;;6.40;;
11807;SDS011;5961;42.640;23.380;2023-05-10T05:52:11;9.27;;;6.57;;
11807;SDS011;5961;42.640;23.380;2023-05-10T05:54:37;8.40;;;6.97;;
11807;SDS011;5961;42.640;23.380;2023-05-10T05:57:04;8.43;;;6.97;;
11807;SDS011;5961;42.640;23.380;2023-05-10T05:59:31;8.37;;;7.47;;
11807;SDS011;5961;42.640;23.380;2023-05-10T06:01:59;9.67;;;7.00;;
11807;SDS011;5961;42.640;23.380;2023-05-10T06:04:26;10.93;;;7.87;;
11807;SDS011;5961;42.640;23.380;2023-05-10T06:06:53;10.40;;;7.53;;
11807;SDS011;5961;42.640;23.380;2023-05-10T06:09:20;8.53;;;7.60;;
11807;SDS011;5961;42.640;23.380;2023-05-10T06:11:48;12.87;;;7.93;;
11807;SDS011;5961;42.640;23.380;2023-05-10T06:14:15;10.00;;;7.90;;
11807;SDS011;5961;42.640;23.380;2023-05-10T06:16:42;9.03;;;7.53;;
11807;SDS011;5961;42.640;23.380;2023-05-10T06:19:10;9.43;;;7.50;;
11807;SDS011;5961;42.640;23.380;2023-05-10T06:21:36;11.13;;;7.33;;
11807;SDS011;5961;42.640;23.380;2023-05-10T06:24:03;9.07;;;6.87;;
11807;SDS011;5961;42.640;23.380;2023-05-10T06:26:31;9.60;;;7.57;;
11807;SDS011;5961;42.640;23.380;2023-05-10T06:28:59;9.13;;;7.50;;
11807;SDS011;5961;42.640;23.380;2023-05-10T06:31:26;11.70;;;8.63;;
11807;SDS011;5961;42.640;23.380;2023-05-10T06:33:53;12.43;;;7.63;;
11807;SDS011;5961;42.640;23.380;2023-05-10T06:36:21;9.13;;;7.40;;
11807;SDS011;5961;42.640;23.380;2023-05-10T06:38:51;9.17;;;7.63;;
11807;SDS011;5961;42.640;23.380;2023-05-10T06:41:17;8.83;;;7.57;;
11807;SDS011;5961;42.640;23.380;2023-05-10T06:43:44;9.47;;;7.50;;
11807;SDS011;5961;42.640;23.380;2023-05-10T06:46:11;10.67;;;7.67;;
11807;SDS011;5961;42.640;23.380;2023-05-10T06:48:37;9.37;;;7.63;;
11807;SDS011;5961;42.640;23.380;2023-05-10T06:51:04;10.97;;;7.73;;
11807;SDS011;5961;42.640;23.380;2023-05-10T06:53:32;9.87;;;7.00;;
11807;SDS011;5961;42.640;23.380;2023-05-10T06:55:59;8.93;;;7.70;;
11807;SDS011;5961;42.640;23.380;2023-05-10T06:58:26;8.60;;;7.07;;
11807;SDS011;5961;42.640;23.380;2023-05-10T07:00:54;9.40;;;7.60;;
11807;SDS011;5961;42.640;23.380;2023-05-10T07:03:21;11.47;;;7.90;;
11807;SDS011;5961;42.640;23.380;2023-05-10T07:05:47;9.87;;;7.87;;
11807;SDS011;5961;42.640;23.380;2023-05-10T07:08:14;8.30;;;7.37;;
11807;SDS011;5961;42.640;23.380;2023-05-10T07:10:42;9.43;;;6.47;;
11807;SDS011;5961;42.640;23.380;2023-05-10T07:13:09;7.60;;;6.83;;
11807;SDS011;5961;42.640;23.380;2023-05-10T07:15:35;9.70;;;7.60;;
11807;SDS011;5961;42.640;23.380;2023-05-10T07:18:02;8.90;;;6.87;;
11807;SDS011;5961;42.640;23.380;2023-05-10T07:20:34;7.93;;;6.67;;
11807;SDS011;5961;42.640;23.380;2023-05-10T07:23:01;7.83;;;7.03;;
11807;SDS011;5961;42.640;23.380;2023-05-10T07:25:27;7.93;;;7.13;;
11807;SDS011;5961;42.640;23.380;2023-05-10T07:27:55;9.30;;;7.30;;
11807;SDS011;5961;42.640;23.380;2023-05-10T07:30:22;9.13;;;7.83;;
11807;SDS011;5961;42.640;23.380;2023-05-10T07:32:49;11.20;;;8.50;;
11807;SDS011;5961;42.640;23.380;2023-05-10T07:35:16;10.27;;;7.87;;
11807;SDS011;5961;42.640;23.380;2023-05-10T07:37:43;11.37;;;8.50;;
11807;SDS011;5961;42.640;23.380;2023-05-10T07:40:09;10.33;;;8.10;;
11807;SDS011;5961;42.640;23.380;2023-05-10T07:42:36;12.07;;;8.83;;
11807;SDS011;5961;42.640;23.380;2023-05-10T07:45:05;11.90;;;8.30;;
11807;SDS011;5961;42.640;23.380;2023-05-10T07:47:33;12.10;;;7.90;;
11807;SDS011;5961;42.640;23.380;2023-05-10T07:49:59;9.07;;;7.60;;
11807;SDS011;5961;42.640;23.380;2023-05-10T07:52:26;9.33;;;8.27;;
11807;SDS011;5961;42.640;23.380;2023-05-10T07:54:53;9.83;;;7.93;;
11807;SDS011;5961;42.640;23.380;2023-05-10T07:57:21;9.43;;;8.43;;
11807;SDS011;5961;42.640;23.380;2023-05-10T07:59:48;12.20;;;8.87;;
11807;SDS011;5961;42.640;23.380;2023-05-10T08:02:16;10.30;;;9.27;;
11807;SDS011;5961;42.640;23.380;2023-05-10T08:04:43;11.93;;;8.67;;
11807;SDS011;5961;42.640;23.380;2023-05-10T08:07:10;10.13;;;9.00;;
11807;SDS011;5961;42.640;23.380;2023-05-10T08:09:37;10.47;;;8.27;;
11807;SDS011;5961;42.640;23.380;2023-05-10T08:12:04;9.47;;;8.47;;
11807;SDS011;5961;42.640;23.380;2023-05-10T08:14:31;13.23;;;8.33;;
11807;SDS011;5961;42.640;23.380;2023-05-10T08:16:58;10.57;;;8.03;;
11807;SDS011;5961;42.640;23.380;2023-05-10T08:19:26;12.70;;;8.93;;
11807;SDS011;5961;42.640;23.380;2023-05-10T08:21:52;9.87;;;8.67;;
11807;SDS011;5961;42.640;23.380;2023-05-10T08:24:20;10.40;;;8.40;;
11807;SDS011;5961;42.640;23.380;2023-05-10T08:26:47;10.93;;;9.00;;
11807;SDS011;5961;42.640;23.380;2023-05-10T08:29:14;11.07;;;8.43;;
11807;SDS011;5961;42.640;23.380;2023-05-10T08:31:40;9.90;;;8.37;;
11807;SDS011;5961;42.640;23.380;2023-05-10T08:34:07;9.07;;;8.03;;
11807;SDS011;5961;42.640;23.380;2023-05-10T08:36:35;12.33;;;9.03;;
11807;SDS011;5961;42.640;23.380;2023-05-10T08:39:02;10.33;;;9.27;;
11807;SDS011;5961;42.640;23.380;2023-05-10T08:41:29;12.03;;;9.20;;
11807;SDS011;5961;42.640;23.380;2023-05-10T08:43:59;12.00;;;8.90;;
11807;SDS011;5961;42.640;23.380;2023-05-10T08:46:30;12.63;;;9.30;;
11807;SDS011;5961;42.640;23.380;2023-05-10T08:49:00;10.50;;;8.67;;
11807;SDS011;5961;42.640;23.380;2023-05-10T08:51:31;11.03;;;8.87;;
11807;SDS011;5961;42.640;23.380;2023-05-10T08:54:03;9.80;;;8.73;;
11807;SDS011;5961;42.640;23.380;2023-05-10T08:56:31;11.60;;;8.80;;
11807;SDS011;5961;42.640;23.380;2023-05-10T08:58:59;11.57;;;9.00;;
11807;SDS011;5961;42.640;23.380;2023-05-10T09:01:26;10.47;;;8.87;;
11807;SDS011;5961;42.640;23.380;2023-05-10T09:03:53;11.13;;;9.47;;
11807;SDS011;5961;42.640;23.380;2023-05-10T09:06:20;11.33;;;9.63;;
11807;SDS011;5961;42.640;23.380;2023-05-10T09:08:47;10.90;;;9.70;;
11807;SDS011;5961;42.640;23.380;2023-05-10T09:11:15;9.87;;;8.80;;
11807;SDS011;5961;42.640;23.380;2023-05-10T09:13:43;10.33;;;8.53;;
11807;SDS011;5961;42.640;23.380;2023-05-10T09:16:10;11.03;;;9.03;;
11807;SDS011;5961;42.640;23.380;2023-05-10T09:18:37;14.30;;;8.73;;
11807;SDS011;5961;42.640;23.380;2023-05-10T09:21:04;11.63;;;8.63;;
11807;SDS011;5961;42.640;23.380;2023-05-10T09:23:31;12.83;;;9.43;;
11807;SDS011;5961;42.640;23.380;2023-05-10T09:26:04;13.33;;;8.50;;
11807;SDS011;5961;42.640;23.380;2023-05-10T09:28:33;11.20;;;8.73;;
11807;SDS011;5961;42.640;23.380;2023-05-10T09:31:00;13.90;;;9.60;;
11807;SDS011;5961;42.640;23.380;2023-05-10T09:33:27;10.03;;;9.00;;
11807;SDS011;5961;42.640;23.380;2023-05-10T09:35:54;12.03;;;9.80;;
11807;SDS011;5961;42.640;23.380;2023-05-10T09:38:21;11.60;;;9.23;;
11807;SDS011;5961;42.640;23.380;2023-05-10T09:40:50;12.77;;;8.67;;
11807;SDS011;5961;42.640;23.380;2023-05-10T09:43:21;9.07;;;8.17;;
11807;SDS011;5961;42.640;23.380;2023-05-10T09:45:49;8.27;;;7.40;;
11807;SDS011;5961;42.640;23.380;2023-05-10T09:48:15;9.90;;;8.30;;
11807;SDS011;5961;42.640;23.380;2023-05-10T09:50:42;9.97;;;8.70;;
11807;SDS011;5961;42.640;23.380;2023-05-10T09:53:09;8.87;;;7.73;;
11807;SDS011;5961;42.640;23.380;2023-05-10T09:55:40;7.87;;;7.07;;
11807;SDS011;5961;42.640;23.380;2023-05-10T09:58:09;11.13;;;8.13;;
11807;SDS011;5961;42.640;23.380;2023-05-10T10:00:37;8.77;;;7.73;;
11807;SDS011;5961;42.640;23.380;2023-05-10T10:03:07;10.87;;;7.90;;
11807;SDS011;5961;42.640;23.380;2023-05-10T10:05:39;13.00;;;8.60;;
11807;SDS011;5961;42.640;23.380;2023-05-10T10:08:07;10.90;;;8.50;;
11807;SDS011;5961;42.640;23.380;2023-05-10T10:10:34;11.37;;;7.83;;
11807;SDS011;5961;42.640;23.380;2023-05-10T10:13:01;11.10;;;7.90;;
11807;SDS011;5961;42.640;23.380;2023-05-10T10:15:29;12.30;;;7.90;;
11807;SDS011;5961;42.640;23.380;2023-05-10T10:17:57;16.67;;;7.40;;
11807;SDS011;5961;42.640;23.380;2023-05-10T10:20:25;9.17;;;7.20;;
11807;SDS011;5961;42.640;23.380;2023-05-10T10:22:52;8.50;;;7.60;;
11807;SDS011;5961;42.640;23.380;2023-05-10T10:25:19;8.47;;;7.03;;
11807;SDS011;5961;42.640;23.380;2023-05-10T10:27:48;9.13;;;7.00;;
11807;SDS011;5961;42.640;23.380;2023-05-10T10:30:29;7.47;;;6.47;;
11807;SDS011;5961;42.640;23.380;2023-05-10T10:33:08;10.83;;;6.83;;
11807;SDS011;5961;42.640;23.380;2023-05-10T10:35:50;11.67;;;7.17;;
11807;SDS011;5961;42.640;23.380;2023-05-10T10:38:18;9.50;;;6.53;;
11807;SDS011;5961;42.640;23.380;2023-05-10T10:40:45;8.40;;;6.53;;
11807;SDS011;5961;42.640;23.380;2023-05-10T10:43:21;10.00;;;6.90;;
11807;SDS011;5961;42.640;23.380;2023-05-10T10:48:38;7.70;;;6.83;;
11807;SDS011;5961;42.640;23.380;2023-05-10T10:51:06;14.03;;;6.90;;
11807;SDS011;5961;42.640;23.380;2023-05-10T10:53:33;12.17;;;6.70;;
11807;SDS011;5961;42.640;23.380;2023-05-10T10:56:06;9.13;;;5.67;;
11807;SDS011;5961;42.640;23.380;2023-05-10T10:58:34;9.03;;;6.77;;
11807;SDS011;5961;42.640;23.380;2023-05-10T11:01:12;10.20;;;6.13;;
11807;SDS011;5961;42.640;23.380;2023-05-10T11:03:41;7.53;;;6.27;;
11807;SDS011;5961;42.640;23.380;2023-05-10T11:06:29;7.13;;;6.27;;
11807;SDS011;5961;42.640;23.380;2023-05-10T11:08:58;10.17;;;6.40;;
11807;SDS011;5961;42.640;23.380;2023-05-10T11:11:25;7.27;;;6.10;;
11807;SDS011;5961;42.640;23.380;2023-05-10T11:13:52;7.07;;;5.50;;
11807;SDS011;5961;42.640;23.380;2023-05-10T11:16:19;7.97;;;6.17;;
11807;SDS011;5961;42.640;23.380;2023-05-10T11:18:54;14.67;;;6.77;;
11807;SDS011;5961;42.640;23.380;2023-05-10T11:21:24;8.97;;;7.03;;
11807;SDS011;5961;42.640;23.380;2023-05-10T11:23:53;9.77;;;6.30;;
11807;SDS011;5961;42.640;23.380;2023-05-10T11:26:22;13.70;;;6.50;;
11807;SDS011;5961;42.640;23.380;2023-05-10T11:28:51;7.30;;;6.60;;
11807;SDS011;5961;42.640;23.380;2023-05-10T11:31:19;11.03;;;6.80;;
11807;SDS011;5961;42.640;23.380;2023-05-10T11:33:47;6.77;;;6.17;;
11807;SDS011;5961;42.640;23.380;2023-05-10T11:36:15;8.57;;;5.90;;
11807;SDS011;5961;42.640;23.380;2023-05-10T11:38:43;12.07;;;6.80;;
11807;SDS011;5961;42.640;23.380;2023-05-10T11:41:11;8.33;;;6.10;;
11807;SDS011;5961;42.640;23.380;2023-05-10T11:43:39;7.90;;;6.53;;
11807;SDS011;5961;42.640;23.380;2023-05-10T11:46:06;13.30;;;6.47;;
11807;SDS011;5961;42.640;23.380;2023-05-10T11:48:34;10.43;;;6.50;;
11807;SDS011;5961;42.640;23.380;2023-05-10T11:51:01;9.97;;;6.73;;
11807;SDS011;5961;42.640;23.380;2023-05-10T11:53:29;7.80;;;6.70;;
11807;SDS011;5961;42.640;23.380;2023-05-10T11:56:02;8.07;;;6.40;;
11807;SDS011;5961;42.640;23.380;2023-05-10T11:58:30;8.23;;;6.70;;
11807;SDS011;5961;42.640;23.380;2023-05-10T12:00:57;9.83;;;6.73;;
11807;SDS011;5961;42.640;23.380;2023-05-10T12:03:24;7.93;;;7.10;;
11807;SDS011;5961;42.640;23.380;2023-05-10T12:05:51;9.30;;;6.83;;
11807;SDS011;5961;42.640;23.380;2023-05-10T12:08:20;9.90;;;6.83;;
11807;SDS011;5961;42.640;23.380;2023-05-10T12:10:48;9.07;;;7.63;;
11807;SDS011;5961;42.640;23.380;2023-05-10T12:13:15;8.87;;;7.67;;
11807;SDS011;5961;42.640;23.380;2023-05-10T12:15:43;9.00;;;7.20;;
11807;SDS011;5961;42.640;23.380;2023-05-10T12:18:10;9.73;;;7.33;;
11807;SDS011;5961;42.640;23.380;2023-05-10T12:20:37;10.43;;;7.10;;
11807;SDS011;5961;42.640;23.380;2023-05-10T12:23:04;9.97;;;7.00;;
11807;SDS011;5961;42.640;23.380;2023-05-10T12:25:32;9.90;;;7.40;;
11807;SDS011;5961;42.640;23.380;2023-05-10T12:28:02;9.03;;;7.07;;
11807;SDS011;5961;42.640;23.380;2023-05-10T12:30:31;10.80;;;8.53;;
11807;SDS011;5961;42.640;23.380;2023-05-10T12:33:00;10.27;;;7.57;;
11807;SDS011;5961;42.640;23.380;2023-05-10T12:35:30;11.03;;;7.13;;
11807;SDS011;5961;42.640;23.380;2023-05-10T12:37:57;7.67;;;6.73;;
11807;SDS011;5961;42.640;23.380;2023-05-10T12:40:24;9.77;;;6.57;;
11807;SDS011;5961;42.640;23.380;2023-05-10T12:42:51;10.40;;;6.83;;
11807;SDS011;5961;42.640;23.380;2023-05-10T12:45:18;6.37;;;5.50;;
11807;SDS011;5961;42.640;23.380;2023-05-10T12:47:45;7.63;;;6.33;;
11807;SDS011;5961;42.640;23.380;2023-05-10T12:50:13;9.27;;;6.57;;
11807;SDS011;5961;42.640;23.380;2023-05-10T12:52:39;8.53;;;6.37;;
11807;SDS011;5961;42.640;23.380;2023-05-10T12:55:06;8.17;;;6.70;;
11807;SDS011;5961;42.640;23.380;2023-05-10T12:57:34;10.83;;;7.03;;
11807;SDS011;5961;42.640;23.380;2023-05-10T13:00:00;7.57;;;6.33;;
11807;SDS011;5961;42.640;23.380;2023-05-10T13:02:27;11.47;;;7.10;;
11807;SDS011;5961;42.640;23.380;2023-05-10T13:04:54;7.33;;;6.63;;
11807;SDS011;5961;42.640;23.380;2023-05-10T13:07:22;7.53;;;5.93;;
11807;SDS011;5961;42.640;23.380;2023-05-10T13:09:49;11.27;;;5.90;;
11807;SDS011;5961;42.640;23.380;2023-05-10T13:12:16;8.63;;;5.90;;
11807;SDS011;5961;42.640;23.380;2023-05-10T13:14:42;7.43;;;6.20;;
11807;SDS011;5961;42.640;23.380;2023-05-10T13:17:09;9.37;;;6.57;;
11807;SDS011;5961;42.640;23.380;2023-05-10T13:19:36;7.13;;;6.27;;
11807;SDS011;5961;42.640;23.380;2023-05-10T13:22:02;8.40;;;5.97;;
11807;SDS011;5961;42.640;23.380;2023-05-10T13:24:30;7.83;;;5.83;;
11807;SDS011;5961;42.640;23.380;2023-05-10T13:26:57;8.47;;;6.07;;
11807;SDS011;5961;42.640;23.380;2023-05-10T13:29:24;12.63;;;6.23;;
11807;SDS011;5961;42.640;23.380;2023-05-10T13:31:51;9.03;;;6.47;;
11807;SDS011;5961;42.640;23.380;2023-05-10T13:34:17;10.23;;;6.40;;
11807;SDS011;5961;42.640;23.380;2023-05-10T13:36:46;7.80;;;6.13;;
11807;SDS011;5961;42.640;23.380;2023-05-10T13:39:14;7.87;;;6.07;;
11807;SDS011;5961;42.640;23.380;2023-05-10T13:41:42;13.67;;;5.90;;
11807;SDS011;5961;42.640;23.380;2023-05-10T13:44:09;9.60;;;6.33;;
11807;SDS011;5961;42.640;23.380;2023-05-10T13:46:37;9.67;;;5.73;;
11807;SDS011;5961;42.640;23.380;2023-05-10T13:49:03;11.60;;;5.70;;
11807;SDS011;5961;42.640;23.380;2023-05-10T13:51:30;7.83;;;6.03;;
11807;SDS011;5961;42.640;23.380;2023-05-10T13:53:57;8.33;;;6.77;;
11807;SDS011;5961;42.640;23.380;2023-05-10T13:56:39;10.10;;;7.20;;
11807;SDS011;5961;42.640;23.380;2023-05-10T13:59:09;7.90;;;6.27;;
11807;SDS011;5961;42.640;23.380;2023-05-10T14:01:35;10.60;;;6.53;;
11807;SDS011;5961;42.640;23.380;2023-05-10T14:04:02;8.87;;;6.27;;
11807;SDS011;5961;42.640;23.380;2023-05-10T14:06:29;7.43;;;6.17;;
11807;SDS011;5961;42.640;23.380;2023-05-10T14:08:56;6.90;;;5.80;;
11807;SDS011;5961;42.640;23.380;2023-05-10T14:11:23;7.23;;;6.27;;
11807;SDS011;5961;42.640;23.380;2023-05-10T14:13:51;10.63;;;6.90;;
11807;SDS011;5961;42.640;23.380;2023-05-10T14:16:17;12.30;;;7.60;;
11807;SDS011;5961;42.640;23.380;2023-05-10T14:18:45;12.70;;;8.77;;
11807;SDS011;5961;42.640;23.380;2023-05-10T14:21:11;8.97;;;6.53;;
11807;SDS011;5961;42.640;23.380;2023-05-10T14:23:38;8.83;;;6.63;;
11807;SDS011;5961;42.640;23.380;2023-05-10T14:26:05;8.23;;;6.60;;
11807;SDS011;5961;42.640;23.380;2023-05-10T14:28:32;8.50;;;6.40;;
11807;SDS011;5961;42.640;23.380;2023-05-10T14:31:00;7.93;;;6.60;;
11807;SDS011;5961;42.640;23.380;2023-05-10T14:33:27;10.10;;;6.33;;
11807;SDS011;5961;42.640;23.380;2023-05-10T14:35:54;9.67;;;6.90;;
11807;SDS011;5961;42.640;23.380;2023-05-10T14:38:21;9.20;;;6.10;;
11807;SDS011;5961;42.640;23.380;2023-05-10T14:40:48;10.57;;;6.90;;
11807;SDS011;5961;42.640;23.380;2023-05-10T14:43:15;10.83;;;6.63;;
11807;SDS011;5961;42.640;23.380;2023-05-10T14:45:41;11.37;;;7.30;;
11807;SDS011;5961;42.640;23.380;2023-05-10T14:48:09;9.77;;;7.63;;
11807;SDS011;5961;42.640;23.380;2023-05-10T14:50:40;10.80;;;6.77;;
11807;SDS011;5961;42.640;23.380;2023-05-10T14:56:01;11.43;;;8.77;;
11807;SDS011;5961;42.640;23.380;2023-05-10T14:58:28;8.30;;;6.60;;